Time;durP1;ratioP1;P1;durP2;ratioP2;P2;SDS_P1;SDS_P2;PMS_P1;PMS_P2;Temp;Humidity;BMP_temperature;BMP_pressure;BME280_temperature;BME280_humidity;BME280_pressure;Samples;Min_cycle;Max_cycle;Signal;HPM_P1;HPM_P2
2021/08/14 00:01:12;;;;;;;9.82;4.60;;;21.20;99.90;;;;;;5077106;28;20082;-90
2021/08/14 00:03:38;;;;;;;8.07;4.60;;;21.20;99.90;;;;;;5076780;28;20459;-89
2021/08/14 00:06:03;;;;;;;6.78;3.95;;;21.30;99.90;;;;;;5077085;28;20044;-89
2021/08/14 00:08:29;;;;;;;12.50;4.50;;;21.40;99.90;;;;;;5076527;28;20070;-89
2021/08/14 00:10:55;;;;;;;11.13;4.60;;;21.40;99.90;;;;;;5077794;28;20480;-90
2021/08/14 00:13:21;;;;;;;6.50;4.50;;;21.40;99.90;;;;;;5079808;28;20038;-89
2021/08/14 00:15:46;;;;;;;15.48;5.47;;;21.00;99.90;;;;;;5079423;28;20024;-90
2021/08/14 00:18:12;;;;;;;7.47;4.40;;;20.90;99.90;;;;;;5079642;28;20093;-90
2021/08/14 00:20:38;;;;;;;7.65;4.47;;;20.90;99.90;;;;;;5079407;28;20053;-89
2021/08/14 00:23:03;;;;;;;9.35;4.60;;;21.00;99.90;;;;;;5079421;28;20059;-90
2021/08/14 00:25:29;;;;;;;9.43;4.55;;;20.80;99.90;;;;;;5097415;28;20020;-90
2021/08/14 00:27:55;;;;;;;8.63;4.40;;;20.80;99.90;;;;;;5079318;28;20031;-90
2021/08/14 00:30:21;;;;;;;8.60;4.38;;;21.00;99.90;;;;;;5079348;28;20028;-89
2021/08/14 00:32:47;;;;;;;7.95;4.80;;;21.20;99.90;;;;;;5079279;28;20368;-89
2021/08/14 00:35:13;;;;;;;9.00;4.55;;;21.10;99.90;;;;;;5097334;28;20030;-89
2021/08/14 00:37:39;;;;;;;6.63;4.72;;;21.20;99.90;;;;;;5079117;28;20032;-89
2021/08/14 00:40:05;;;;;;;5.93;4.30;;;21.30;99.90;;;;;;5079244;28;20046;-89
2021/08/14 00:42:31;;;;;;;10.60;4.60;;;21.10;99.90;;;;;;5079037;28;20047;-89
2021/08/14 00:45:00;;;;;;;8.20;4.43;;;21.10;99.90;;;;;;5078885;28;20482;-89
2021/08/14 00:47:26;;;;;;;6.68;4.68;;;21.10;99.90;;;;;;5078955;28;20119;-89
2021/08/14 00:49:55;;;;;;;10.68;4.63;;;21.10;99.90;;;;;;5097149;28;20024;-89
2021/08/14 00:52:22;;;;;;;8.20;4.50;;;20.80;99.90;;;;;;5078776;28;20469;-89
2021/08/14 00:54:48;;;;;;;9.18;4.88;;;20.90;99.90;;;;;;5078766;28;20032;-89
2021/08/14 00:57:15;;;;;;;6.65;4.80;;;21.00;99.90;;;;;;5079331;28;20101;-89
2021/08/14 00:59:41;;;;;;;7.32;4.90;;;20.90;99.90;;;;;;5096951;28;20101;-89
2021/08/14 01:02:08;;;;;;;6.85;4.07;;;21.00;99.90;;;;;;5078613;28;20476;-89
2021/08/14 01:04:34;;;;;;;7.75;4.43;;;20.90;99.90;;;;;;5078512;28;20031;-89
2021/08/14 01:07:01;;;;;;;9.35;4.90;;;20.90;99.90;;;;;;5078631;28;20383;-89
2021/08/14 01:09:30;;;;;;;6.88;4.40;;;20.90;99.90;;;;;;5078672;28;20090;-90
2021/08/14 01:12:01;;;;;;;9.93;4.75;;;20.90;99.90;;;;;;5078812;28;20024;-89
2021/08/14 01:14:28;;;;;;;6.38;4.32;;;20.70;99.90;;;;;;5078382;28;20020;-89
2021/08/14 01:16:54;;;;;;;8.48;4.70;;;20.90;99.90;;;;;;5078501;28;20024;-89
2021/08/14 01:19:21;;;;;;;7.18;4.53;;;20.90;99.90;;;;;;5078471;28;20123;-89
2021/08/14 01:21:51;;;;;;;8.95;5.07;;;20.90;99.90;;;;;;5095406;28;20472;-89
2021/08/14 01:24:17;;;;;;;8.48;4.95;;;20.90;99.90;;;;;;5078166;28;20523;-89
2021/08/14 01:26:44;;;;;;;7.78;4.47;;;20.50;99.90;;;;;;5078289;28;20027;-89
2021/08/14 01:29:10;;;;;;;10.07;4.70;;;20.40;99.90;;;;;;5078176;28;20031;-89
2021/08/14 01:31:36;;;;;;;7.20;4.55;;;20.30;99.90;;;;;;5078292;28;20471;-90
2021/08/14 01:34:01;;;;;;;9.25;5.15;;;20.00;99.90;;;;;;5078121;28;20024;-89
2021/08/14 01:36:27;;;;;;;10.07;5.03;;;20.20;99.90;;;;;;5096052;28;20024;-90
2021/08/14 01:38:56;;;;;;;8.35;4.75;;;20.30;99.90;;;;;;5078166;28;20157;-90
2021/08/14 01:41:22;;;;;;;9.07;4.95;;;20.30;99.90;;;;;;5077785;28;20028;-89
2021/08/14 01:43:52;;;;;;;12.15;5.43;;;20.40;99.90;;;;;;5077858;28;20028;-89
2021/08/14 01:46:18;;;;;;;10.02;4.65;;;20.30;99.90;;;;;;5077866;28;20487;-89
2021/08/14 01:48:44;;;;;;;8.50;4.70;;;20.30;99.90;;;;;;5077840;28;20119;-89
2021/08/14 01:51:09;;;;;;;9.80;4.57;;;20.30;99.90;;;;;;5078396;28;20036;-89
2021/08/14 01:53:35;;;;;;;6.00;4.80;;;20.50;99.90;;;;;;5097174;28;20020;-90
2021/08/14 01:56:01;;;;;;;12.05;4.72;;;20.30;99.90;;;;;;5098001;28;20416;-89
2021/08/14 01:58:26;;;;;;;10.15;5.13;;;20.50;99.90;;;;;;5079695;28;20020;-89
2021/08/14 02:00:52;;;;;;;8.02;4.93;;;20.30;99.90;;;;;;5079371;28;20050;-89
2021/08/14 02:03:18;;;;;;;11.27;4.85;;;20.20;99.90;;;;;;5079180;28;20024;-90
2021/08/14 02:05:45;;;;;;;8.57;5.05;;;20.20;99.90;;;;;;5079288;28;20030;-89
2021/08/14 02:08:11;;;;;;;10.63;5.55;;;20.10;99.90;;;;;;5099004;28;20017;-90
2021/08/14 02:10:40;;;;;;;10.98;4.85;;;20.00;99.90;;;;;;5080721;28;20031;-89
2021/08/14 02:13:09;;;;;;;7.88;4.85;;;20.20;99.90;;;;;;5081838;28;20154;-90
2021/08/14 02:15:35;;;;;;;7.18;5.13;;;20.30;99.90;;;;;;5080672;28;20119;-89
2021/08/14 02:18:01;;;;;;;6.32;4.97;;;20.40;99.90;;;;;;5080641;28;20063;-89
2021/08/14 02:20:27;;;;;;;10.35;4.63;;;20.30;99.90;;;;;;5079500;28;20016;-88
2021/08/14 02:22:52;;;;;;;6.20;5.07;;;20.30;99.90;;;;;;5078893;28;20024;-89
2021/08/14 02:25:18;;;;;;;8.30;5.05;;;20.30;99.90;;;;;;5078358;28;20119;-90
2021/08/14 02:27:44;;;;;;;7.90;4.68;;;20.00;99.90;;;;;;5078911;28;20037;-90
2021/08/14 02:30:10;;;;;;;12.25;5.13;;;20.10;99.90;;;;;;5079054;28;20468;-89
2021/08/14 02:32:36;;;;;;;8.40;4.53;;;20.10;99.90;;;;;;5078936;28;20020;-90
2021/08/14 02:35:02;;;;;;;9.07;5.30;;;20.10;99.90;;;;;;5078378;28;20035;-89
2021/08/14 02:37:28;;;;;;;6.60;5.03;;;20.30;99.90;;;;;;5078378;28;20067;-89
2021/08/14 02:39:53;;;;;;;9.05;5.05;;;20.30;99.90;;;;;;5078558;28;20081;-89
2021/08/14 02:42:19;;;;;;;6.07;5.10;;;20.40;99.90;;;;;;5077666;28;20030;-89
2021/08/14 02:44:45;;;;;;;11.65;4.97;;;20.20;99.90;;;;;;5078945;28;20024;-89
2021/08/14 02:47:10;;;;;;;9.88;4.97;;;20.10;99.90;;;;;;5078657;28;20486;-90
2021/08/14 02:49:36;;;;;;;11.32;5.30;;;20.10;99.90;;;;;;5078794;28;20031;-89
2021/08/14 02:52:02;;;;;;;9.68;5.25;;;20.00;99.90;;;;;;5096434;28;20469;-89
2021/08/14 02:54:27;;;;;;;10.30;5.00;;;19.90;99.90;;;;;;5078418;28;20032;-90
2021/08/14 02:56:53;;;;;;;12.32;5.53;;;19.80;99.90;;;;;;5078003;28;20031;-89
2021/08/14 02:59:19;;;;;;;8.27;5.43;;;20.00;99.90;;;;;;5077594;28;20118;-90
2021/08/14 03:01:45;;;;;;;9.15;5.07;;;19.90;99.90;;;;;;5078187;28;20027;-90
2021/08/14 03:04:10;;;;;;;8.98;4.70;;;19.80;99.90;;;;;;5078148;28;20472;-90
2021/08/14 03:06:36;;;;;;;6.47;4.85;;;19.80;99.90;;;;;;5078013;28;20028;-90
2021/08/14 03:09:03;;;;;;;6.03;4.60;;;19.80;99.90;;;;;;5078130;28;20074;-90
2021/08/14 03:11:29;;;;;;;9.65;5.35;;;19.80;99.90;;;;;;5096031;28;20379;-90
2021/08/14 03:13:54;;;;;;;11.07;5.18;;;19.90;99.90;;;;;;5095573;28;20059;-90
2021/08/14 03:16:20;;;;;;;7.47;4.95;;;20.00;99.90;;;;;;5078607;28;20028;-90
2021/08/14 03:18:46;;;;;;;12.48;4.85;;;19.70;99.90;;;;;;5077917;28;20023;-90
2021/08/14 03:21:11;;;;;;;8.82;4.85;;;19.70;99.90;;;;;;5078042;28;20026;-90
2021/08/14 03:23:37;;;;;;;9.10;4.53;;;19.80;99.90;;;;;;5077821;28;20047;-90
2021/08/14 03:26:03;;;;;;;10.02;4.82;;;19.80;99.90;;;;;;5096081;28;20016;-90
2021/08/14 03:28:29;;;;;;;8.18;5.55;;;19.90;99.90;;;;;;5077697;28;20027;-90
2021/08/14 03:30:54;;;;;;;11.43;5.10;;;20.00;99.90;;;;;;5077062;28;20073;-90
2021/08/14 03:33:20;;;;;;;8.63;5.28;;;20.00;99.90;;;;;;5077483;28;20028;-90
2021/08/14 03:35:48;;;;;;;7.18;5.28;;;20.00;99.90;;;;;;5077560;28;20024;-90
2021/08/14 03:38:14;;;;;;;14.68;5.70;;;20.00;99.90;;;;;;5077788;28;20135;-90
2021/08/14 03:40:40;;;;;;;7.13;4.85;;;20.10;99.90;;;;;;5096072;28;20051;-90
2021/08/14 03:43:05;;;;;;;10.52;5.38;;;20.10;99.90;;;;;;5077412;28;20032;-90
2021/08/14 03:45:31;;;;;;;11.60;4.85;;;20.10;99.90;;;;;;5060071;28;20114;-90
2021/08/14 03:47:57;;;;;;;9.50;4.75;;;20.10;99.90;;;;;;5076945;28;20024;-90
2021/08/14 03:50:22;;;;;;;8.80;4.85;;;20.10;99.90;;;;;;5095374;28;20089;-90
2021/08/14 03:52:48;;;;;;;6.07;5.10;;;19.90;99.90;;;;;;5054475;28;20052;-90
2021/08/14 03:55:14;;;;;;;13.70;5.57;;;19.90;99.90;;;;;;5054003;28;20063;-90
2021/08/14 03:57:39;;;;;;;9.77;5.13;;;19.60;99.90;;;;;;5053650;28;20393;-90
2021/08/14 04:00:06;;;;;;;10.70;5.05;;;19.70;99.90;;;;;;5053899;28;20020;-90
2021/08/14 04:02:32;;;;;;;10.10;5.07;;;19.80;99.90;;;;;;5053411;28;20025;-90
2021/08/14 04:04:59;;;;;;;10.10;5.00;;;19.40;99.90;;;;;;5053400;28;20193;-90
2021/08/14 04:07:25;;;;;;;6.50;5.07;;;19.20;99.90;;;;;;5053645;28;20511;-90
2021/08/14 04:09:51;;;;;;;14.82;5.78;;;19.40;99.90;;;;;;5053809;28;20104;-90
2021/08/14 04:12:17;;;;;;;7.65;5.30;;;19.40;99.90;;;;;;5053684;28;20404;-90
2021/08/14 04:14:43;;;;;;;7.97;5.00;;;19.30;99.90;;;;;;5054229;28;20029;-90
2021/08/14 04:17:09;;;;;;;7.82;5.60;;;19.50;99.90;;;;;;5053803;28;20098;-90
2021/08/14 04:19:34;;;;;;;8.50;4.88;;;19.40;99.90;;;;;;5055866;28;20023;-90
2021/08/14 04:22:00;;;;;;;8.82;5.40;;;19.50;99.90;;;;;;5056687;28;20032;-90
2021/08/14 04:24:27;;;;;;;9.52;5.30;;;19.30;99.90;;;;;;5055051;28;20021;-90
2021/08/14 04:26:53;;;;;;;8.18;5.15;;;19.10;99.90;;;;;;5054553;28;20546;-90
2021/08/14 04:29:19;;;;;;;12.43;5.18;;;19.30;99.90;;;;;;5053911;28;20029;-90
2021/08/14 04:31:45;;;;;;;9.63;5.20;;;19.70;99.90;;;;;;5053806;28;20025;-90
2021/08/14 04:34:10;;;;;;;8.60;5.55;;;19.70;99.90;;;;;;5053686;28;20126;-89
2021/08/14 04:36:36;;;;;;;8.27;5.38;;;19.80;99.90;;;;;;5054410;28;20076;-90
2021/08/14 04:39:02;;;;;;;9.73;5.60;;;19.70;99.90;;;;;;5053625;28;20031;-90
2021/08/14 04:41:28;;;;;;;7.72;5.13;;;19.40;99.90;;;;;;5053658;28;20036;-90
2021/08/14 04:43:54;;;;;;;11.52;5.80;;;19.40;99.90;;;;;;5053689;28;20505;-90
2021/08/14 04:46:19;;;;;;;10.98;5.50;;;19.40;99.90;;;;;;5054733;28;20017;-90
2021/08/14 04:48:45;;;;;;;9.43;5.30;;;19.20;99.90;;;;;;5053703;28;20018;-90
2021/08/14 04:51:11;;;;;;;7.03;4.88;;;19.30;99.90;;;;;;5066483;28;20094;-90
2021/08/14 04:53:36;;;;;;;7.38;4.85;;;19.20;99.90;;;;;;5076281;28;20067;-90
2021/08/14 04:56:02;;;;;;;8.85;5.32;;;19.30;99.90;;;;;;5077095;28;20024;-90
2021/08/14 04:58:28;;;;;;;6.53;4.70;;;19.40;99.90;;;;;;5080517;28;20039;-90
2021/08/14 05:00:53;;;;;;;10.43;5.45;;;19.40;99.90;;;;;;5080555;28;20369;-90
2021/08/14 05:03:19;;;;;;;7.88;5.15;;;19.30;99.90;;;;;;5080247;28;20035;-90
2021/08/14 05:05:45;;;;;;;10.80;5.53;;;19.60;99.90;;;;;;5080064;28;20016;-90
2021/08/14 05:08:11;;;;;;;6.72;5.10;;;19.40;99.90;;;;;;5098270;28;20523;-90
2021/08/14 05:10:37;;;;;;;7.05;5.20;;;19.70;99.90;;;;;;5079543;28;20422;-90
2021/08/14 05:13:04;;;;;;;10.40;4.95;;;19.70;99.90;;;;;;5080372;28;20020;-90
2021/08/14 05:15:30;;;;;;;7.70;5.05;;;19.90;99.90;;;;;;5080268;28;20030;-90
2021/08/14 05:17:55;;;;;;;9.25;5.32;;;19.60;99.90;;;;;;5098335;28;20049;-90
2021/08/14 05:20:21;;;;;;;8.15;5.20;;;19.70;99.90;;;;;;5079932;28;20036;-90
2021/08/14 05:22:47;;;;;;;7.65;4.97;;;19.80;99.90;;;;;;5097888;28;20024;-90
2021/08/14 05:25:12;;;;;;;8.13;5.15;;;19.80;99.90;;;;;;5079586;28;20043;-90
2021/08/14 05:27:38;;;;;;;7.80;5.38;;;19.70;99.90;;;;;;5080469;28;20027;-90
2021/08/14 05:30:04;;;;;;;10.90;5.95;;;19.70;99.90;;;;;;5079843;28;20432;-90
2021/08/14 05:32:30;;;;;;;8.18;4.93;;;19.70;99.90;;;;;;5080149;28;20028;-90
2021/08/14 05:34:56;;;;;;;8.20;4.75;;;19.80;99.90;;;;;;5079644;28;20089;-90
2021/08/14 05:37:21;;;;;;;9.68;5.18;;;19.80;99.90;;;;;;5079327;28;20028;-90
2021/08/14 05:39:47;;;;;;;10.43;4.95;;;19.90;99.90;;;;;;5079524;28;20106;-90
2021/08/14 05:42:13;;;;;;;9.43;5.25;;;19.90;99.90;;;;;;5079808;28;20484;-90
2021/08/14 05:44:39;;;;;;;8.45;5.28;;;20.00;99.90;;;;;;5079808;28;20050;-90
2021/08/14 05:47:05;;;;;;;10.63;5.32;;;20.10;99.90;;;;;;5079718;28;20114;-90
2021/08/14 05:49:30;;;;;;;6.10;5.03;;;20.10;99.90;;;;;;5098003;28;20031;-90
2021/08/14 05:51:58;;;;;;;9.85;5.40;;;20.00;99.90;;;;;;5079506;28;20068;-90
2021/08/14 05:54:24;;;;;;;8.18;5.00;;;20.00;99.90;;;;;;5079778;28;20046;-90
2021/08/14 05:56:50;;;;;;;9.90;5.55;;;20.00;99.90;;;;;;5079469;28;20024;-90
2021/08/14 05:59:15;;;;;;;6.50;5.30;;;19.90;99.90;;;;;;5078363;28;20028;-90
2021/08/14 06:01:41;;;;;;;7.95;5.20;;;20.10;99.90;;;;;;5079321;28;20051;-90
2021/08/14 06:04:07;;;;;;;12.60;5.32;;;20.40;99.90;;;;;;5079460;28;20024;-90
2021/08/14 06:06:32;;;;;;;9.55;5.32;;;20.40;99.90;;;;;;5079247;28;20024;-90
2021/08/14 06:08:58;;;;;;;9.85;5.15;;;20.30;99.90;;;;;;5078115;28;20020;-90
2021/08/14 06:11:24;;;;;;;11.18;5.22;;;20.30;99.90;;;;;;5079207;28;20020;-88
2021/08/14 06:13:50;;;;;;;7.75;5.75;;;20.40;99.90;;;;;;5078974;28;20074;-89
2021/08/14 06:16:16;;;;;;;8.18;5.22;;;20.60;99.90;;;;;;5078570;28;20035;-90
2021/08/14 06:18:42;;;;;;;12.80;5.18;;;20.70;99.90;;;;;;5078742;28;20023;-90
2021/08/14 06:21:09;;;;;;;11.73;5.90;;;20.60;99.90;;;;;;5078827;28;20032;-90
2021/08/14 06:23:34;;;;;;;10.65;5.32;;;20.80;99.90;;;;;;5078871;28;20027;-90
2021/08/14 06:26:00;;;;;;;8.73;5.05;;;20.90;99.90;;;;;;5079012;28;20020;-90
2021/08/14 06:28:26;;;;;;;8.70;5.45;;;20.90;99.90;;;;;;5080229;28;20024;-90
2021/08/14 06:30:52;;;;;;;12.80;5.38;;;20.90;99.90;;;;;;5079818;28;20052;-90
2021/08/14 06:33:17;;;;;;;8.60;5.68;;;20.80;99.90;;;;;;5097409;28;20364;-90
2021/08/14 06:35:43;;;;;;;9.10;5.60;;;20.80;99.90;;;;;;5079505;28;20161;-90
2021/08/14 06:38:09;;;;;;;6.80;4.97;;;20.80;99.90;;;;;;5078459;28;20023;-90
2021/08/14 06:40:35;;;;;;;8.05;5.22;;;21.00;99.90;;;;;;5078422;28;20024;-90
2021/08/14 06:43:00;;;;;;;10.75;5.20;;;21.00;99.90;;;;;;5078626;28;20027;-90
2021/08/14 06:45:26;;;;;;;11.25;5.13;;;21.10;99.90;;;;;;5078662;28;20020;-90
2021/08/14 06:47:52;;;;;;;8.27;5.35;;;21.20;99.90;;;;;;5078101;28;20411;-90
2021/08/14 06:50:18;;;;;;;11.85;5.20;;;21.30;99.90;;;;;;5078569;28;20269;-90
2021/08/14 06:52:44;;;;;;;8.13;4.78;;;21.30;99.90;;;;;;5078215;28;20051;-90
2021/08/14 06:55:10;;;;;;;7.50;5.22;;;21.50;99.90;;;;;;5078314;28;20545;-90
2021/08/14 06:57:36;;;;;;;15.15;5.70;;;21.70;99.90;;;;;;5078319;28;20052;-90
2021/08/14 07:00:04;;;;;;;10.00;5.60;;;21.70;99.90;;;;;;5078996;28;20471;-90
2021/08/14 07:02:29;;;;;;;8.25;5.07;;;21.80;99.90;;;;;;5078303;28;20452;-90
2021/08/14 07:04:55;;;;;;;8.93;5.50;;;22.00;99.90;;;;;;5077806;28;20047;-90
2021/08/14 07:07:21;;;;;;;10.43;5.40;;;22.10;99.90;;;;;;5078161;28;20134;-90
2021/08/14 07:09:47;;;;;;;9.25;5.03;;;22.10;99.90;;;;;;5096632;28;20016;-90
2021/08/14 07:12:14;;;;;;;8.15;5.10;;;22.20;99.90;;;;;;5078084;28;20020;-90
2021/08/14 07:14:40;;;;;;;7.40;5.18;;;22.40;99.90;;;;;;5077993;28;20020;-90
2021/08/14 07:17:05;;;;;;;9.77;5.38;;;22.50;99.90;;;;;;5077942;28;20111;-90
2021/08/14 07:19:31;;;;;;;7.97;5.50;;;22.60;99.90;;;;;;5077425;28;20043;-90
2021/08/14 07:21:57;;;;;;;8.82;5.30;;;22.70;99.90;;;;;;5077010;28;20066;-90
2021/08/14 07:24:23;;;;;;;6.70;4.95;;;22.90;99.90;;;;;;5077532;28;20032;-90
2021/08/14 07:26:48;;;;;;;9.52;5.88;;;23.00;99.90;;;;;;5077885;28;20442;-90
2021/08/14 07:29:14;;;;;;;8.98;5.35;;;23.10;99.90;;;;;;5095029;28;20051;-90
2021/08/14 07:31:40;;;;;;;8.40;5.10;;;23.20;99.90;;;;;;5076994;28;20024;-90
2021/08/14 07:34:05;;;;;;;11.75;5.22;;;23.20;99.90;;;;;;5077735;28;20024;-90
2021/08/14 07:36:31;;;;;;;10.63;5.03;;;23.30;99.90;;;;;;5095158;28;20472;-90
2021/08/14 07:38:57;;;;;;;11.02;5.13;;;23.40;99.90;;;;;;5076851;28;20024;-90
2021/08/14 07:41:22;;;;;;;7.80;5.30;;;23.60;99.90;;;;;;5077555;28;20031;-90
2021/08/14 07:43:48;;;;;;;8.88;4.88;;;23.60;99.90;;;;;;5078105;28;20123;-90
2021/08/14 07:46:14;;;;;;;10.40;5.47;;;23.70;99.90;;;;;;5077409;28;20365;-90
2021/08/14 07:48:39;;;;;;;8.63;5.00;;;23.90;99.90;;;;;;5077697;28;20066;-90
2021/08/14 07:51:05;;;;;;;8.77;4.85;;;24.10;99.90;;;;;;5077368;28;20062;-90
2021/08/14 07:53:32;;;;;;;8.45;5.10;;;24.10;99.90;;;;;;5076514;28;20115;-90
2021/08/14 07:55:57;;;;;;;12.77;5.63;;;24.30;99.90;;;;;;5075535;28;20016;-90
2021/08/14 07:58:23;;;;;;;10.73;4.88;;;24.40;99.90;;;;;;5093647;28;20085;-90
2021/08/14 08:00:49;;;;;;;7.88;4.53;;;24.50;99.90;;;;;;5075426;28;20024;-90
2021/08/14 08:03:14;;;;;;;12.50;4.97;;;24.60;99.90;;;;;;5075460;28;20028;-90
2021/08/14 08:05:40;;;;;;;10.60;5.05;;;24.70;99.90;;;;;;5075504;28;20020;-89
2021/08/14 08:08:07;;;;;;;13.20;5.50;;;24.60;99.90;;;;;;5075429;28;20134;-89
2021/08/14 08:10:34;;;;;;;9.65;4.97;;;24.70;99.90;;;;;;5075692;28;20545;-90
2021/08/14 08:12:59;;;;;;;9.88;4.25;;;24.70;99.90;;;;;;5075477;28;20123;-90
2021/08/14 08:15:26;;;;;;;11.55;5.22;;;24.90;99.90;;;;;;5075672;28;20111;-90
2021/08/14 08:17:53;;;;;;;9.57;4.93;;;24.90;99.90;;;;;;5075498;28;20020;-88
2021/08/14 08:20:21;;;;;;;6.45;4.68;;;25.00;99.90;;;;;;5075273;28;20093;-90
2021/08/14 08:22:47;;;;;;;12.38;4.30;;;25.10;99.90;;;;;;5075037;28;20027;-90
2021/08/14 08:25:14;;;;;;;14.10;4.53;;;25.40;99.90;;;;;;5093263;28;20498;-90
2021/08/14 08:27:43;;;;;;;8.82;4.20;;;25.50;99.90;;;;;;5077528;28;20028;-90
2021/08/14 08:30:10;;;;;;;9.75;4.20;;;25.60;99.90;;;;;;5077807;28;20029;-90
2021/08/14 08:32:37;;;;;;;8.15;4.03;;;25.60;99.90;;;;;;5081120;28;20101;-90
2021/08/14 08:35:04;;;;;;;9.25;4.55;;;25.70;99.90;;;;;;5082739;28;20093;-90
2021/08/14 08:37:30;;;;;;;8.00;4.45;;;25.80;99.90;;;;;;5079814;28;20031;-90
2021/08/14 08:39:56;;;;;;;5.65;3.90;;;25.90;99.90;;;;;;5079291;28;20024;-90
2021/08/14 08:42:21;;;;;;;13.07;4.65;;;26.00;99.90;;;;;;5097533;28;20030;-90
2021/08/14 08:44:47;;;;;;;6.90;4.72;;;26.00;99.90;;;;;;5079040;28;20016;-90
2021/08/14 08:47:14;;;;;;;8.60;3.97;;;26.20;99.90;;;;;;5097409;28;20050;-91
2021/08/14 08:49:53;;;;;;;7.25;4.32;;;26.20;99.90;;;;;;5079092;28;20545;-90
2021/08/14 08:52:20;;;;;;;7.93;4.53;;;26.40;99.90;;;;;;5060318;28;20045;-89
2021/08/14 08:54:47;;;;;;;9.40;4.57;;;26.60;99.90;;;;;;5056274;28;20366;-90
2021/08/14 08:57:13;;;;;;;8.38;4.30;;;26.80;99.90;;;;;;5055406;28;20021;-89
2021/08/14 08:59:39;;;;;;;7.88;4.90;;;26.90;99.90;;;;;;5055256;28;20036;-89
2021/08/14 09:02:18;;;;;;;6.50;4.22;;;26.90;99.90;;;;;;5055140;28;20111;-90
2021/08/14 09:04:44;;;;;;;8.77;4.38;;;27.00;99.90;;;;;;5056541;28;20032;-90
2021/08/14 09:07:27;;;;;;;10.48;4.80;;;27.10;99.90;;;;;;5056481;28;20025;-89
2021/08/14 09:10:01;;;;;;;9.13;4.50;;;27.10;99.90;;;;;;5055187;28;20013;-89
2021/08/14 09:12:45;;;;;;;10.17;4.90;;;27.00;99.90;;;;;;5055198;28;20067;-90
2021/08/14 09:15:29;;;;;;;7.70;4.53;;;27.00;99.90;;;;;;5055013;28;20021;-89
2021/08/14 09:18:03;;;;;;;8.52;4.53;;;27.20;99.90;;;;;;5054955;28;20025;-89
2021/08/14 09:20:29;;;;;;;10.25;4.88;;;27.40;99.90;;;;;;5054835;28;20025;-89
2021/08/14 09:23:00;;;;;;;6.93;4.53;;;27.60;99.90;;;;;;5054732;28;20112;-89
2021/08/14 09:25:25;;;;;;;10.63;4.43;;;27.60;99.90;;;;;;5056246;28;20029;-89
2021/08/14 09:27:57;;;;;;;9.23;4.85;;;27.70;99.90;;;;;;5054763;28;20078;-89
2021/08/14 09:30:44;;;;;;;7.65;4.57;;;27.90;99.90;;;;;;5054641;28;20477;-89
2021/08/14 09:33:11;;;;;;;9.60;4.70;;;27.80;99.90;;;;;;5056757;28;20028;-89
2021/08/14 09:35:37;;;;;;;9.25;4.55;;;27.90;99.90;;;;;;5054782;28;20112;-89
2021/08/14 09:38:08;;;;;;;11.27;4.53;;;28.10;99.90;;;;;;5058655;28;20033;-88
2021/08/14 09:40:44;;;;;;;11.13;4.47;;;28.00;99.90;;;;;;5054695;28;20032;-89
2021/08/14 09:43:11;;;;;;;8.38;4.22;;;28.30;99.90;;;;;;5053444;28;20393;-89
2021/08/14 09:45:38;;;;;;;10.30;4.20;;;28.50;99.90;;;;;;5054441;28;20104;-89
2021/08/14 09:48:18;;;;;;;8.48;4.45;;;28.70;99.90;;;;;;5054461;28;20060;-89
2021/08/14 09:50:44;;;;;;;10.57;4.75;;;28.90;99.90;;;;;;5058538;28;20021;-90
2021/08/14 09:53:13;;;;;;;11.63;5.20;;;28.90;99.90;;;;;;5095826;28;20357;-89
2021/08/14 09:55:39;;;;;;;13.40;4.75;;;29.20;99.90;;;;;;5095692;28;20145;-89
2021/08/14 09:58:09;;;;;;;7.32;4.78;;;29.40;99.90;;;;;;5077567;28;20047;-89
2021/08/14 10:00:35;;;;;;;11.52;4.50;;;29.40;99.90;;;;;;5078008;28;20467;-89
2021/08/14 10:03:03;;;;;;;8.90;4.63;;;29.50;99.90;;;;;;5077392;28;20115;-89
2021/08/14 10:05:34;;;;;;;9.88;4.22;;;29.50;99.90;;;;;;5077347;28;20073;-88
2021/08/14 10:08:01;;;;;;;8.90;4.65;;;29.70;99.90;;;;;;5077519;28;20081;-89
2021/08/14 10:10:27;;;;;;;10.02;4.32;;;29.80;99.90;;;;;;5077301;28;20066;-88
2021/08/14 10:12:56;;;;;;;11.13;4.93;;;29.70;99.90;;;;;;5077246;28;20024;-89
2021/08/14 10:15:22;;;;;;;7.85;4.97;;;29.40;99.90;;;;;;5077205;28;20062;-89
2021/08/14 10:17:49;;;;;;;8.45;4.30;;;29.60;99.90;;;;;;5077183;28;20063;-90
2021/08/14 10:20:15;;;;;;;9.82;4.75;;;29.80;99.90;;;;;;5077624;28;20028;-89
2021/08/14 10:22:43;;;;;;;9.93;4.70;;;29.90;99.90;;;;;;5076963;28;20540;-89
2021/08/14 10:25:17;;;;;;;10.93;4.10;;;30.10;99.90;;;;;;5095202;28;20093;-89
2021/08/14 10:27:55;;;;;;;;;;;30.10;99.90;;;;;;5077459;28;20541;-89
2021/08/14 10:30:42;;;;;;;8.45;4.43;;;30.30;99.90;;;;;;5076899;28;20318;-89
2021/08/14 10:33:28;;;;;;;9.45;4.43;;;30.40;99.90;;;;;;5076853;28;20024;-88
2021/08/14 10:35:55;;;;;;;7.85;4.50;;;30.60;99.90;;;;;;5077412;28;20070;-89
2021/08/14 10:38:49;;;;;;;12.40;4.35;;;30.70;99.90;;;;;;5077335;28;20028;-89
2021/08/14 10:41:15;;;;;;;9.65;4.32;;;30.90;99.90;;;;;;5083971;28;20032;-90
2021/08/14 10:43:53;;;;;;;9.95;4.40;;;31.00;99.90;;;;;;5090096;28;20043;-89
2021/08/14 10:46:31;;;;;;;7.97;4.35;;;30.90;99.90;;;;;;5077917;28;20111;-90
2021/08/14 10:48:58;;;;;;;9.23;4.32;;;31.50;99.90;;;;;;5094903;28;20027;-89
2021/08/14 10:51:53;;;;;;;9.65;4.82;;;31.80;99.90;;;;;;5076347;28;20036;-89
2021/08/14 10:54:27;;;;;;;8.18;4.35;;;31.90;99.90;;;;;;5076180;28;20527;-89
2021/08/14 10:57:00;;;;;;;8.43;4.50;;;32.00;99.80;;;;;;5076453;28;20373;-89
2021/08/14 10:59:35;;;;;;;5.72;3.90;;;32.20;99.20;;;;;;5076509;28;20027;-89
2021/08/14 11:02:10;;;;;;;7.88;4.38;;;32.20;98.80;;;;;;5094391;28;20537;-89
2021/08/14 11:04:35;;;;;;;6.35;4.07;;;32.40;98.30;;;;;;5076273;28;20480;-89
2021/08/14 11:07:16;;;;;;;8.25;4.20;;;32.20;98.60;;;;;;5094351;28;20031;-90
2021/08/14 11:09:45;;;;;;;9.98;4.68;;;32.10;98.80;;;;;;5076124;28;20020;-89
2021/08/14 11:12:11;;;;;;;6.20;4.05;;;31.70;98.60;;;;;;5076191;28;20031;-88
2021/08/14 11:14:46;;;;;;;6.18;4.30;;;31.60;98.50;;;;;;5075961;28;20028;-89
2021/08/14 11:17:13;;;;;;;7.95;4.30;;;32.00;98.80;;;;;;5076860;28;20468;-89
2021/08/14 11:19:47;;;;;;;9.73;4.30;;;31.80;98.50;;;;;;5076023;28;20035;-89
2021/08/14 11:22:32;;;;;;;12.27;4.60;;;31.50;98.80;;;;;;5094137;28;20411;-89
2021/08/14 11:25:04;;;;;;;12.57;4.60;;;32.10;98.90;;;;;;5075875;28;20074;-89
2021/08/14 11:27:35;;;;;;;8.98;4.20;;;32.70;98.00;;;;;;5075813;28;20464;-89
2021/08/14 11:30:02;;;;;;;6.28;4.10;;;32.60;97.60;;;;;;5075839;28;20475;-89
2021/08/14 11:32:30;;;;;;;8.65;4.13;;;33.10;97.70;;;;;;5075748;28;20468;-89
2021/08/14 11:34:56;;;;;;;9.50;4.20;;;33.60;96.90;;;;;;5075838;28;20531;-89
2021/08/14 11:37:22;;;;;;;8.45;4.32;;;32.20;97.40;;;;;;5093769;28;20475;-89
2021/08/14 11:39:58;;;;;;;6.95;4.35;;;31.60;97.90;;;;;;5075936;28;20021;-88
2021/08/14 11:42:29;;;;;;;6.15;4.63;;;31.10;98.30;;;;;;5075665;28;20027;-89
2021/08/14 11:44:57;;;;;;;10.88;4.47;;;32.10;98.60;;;;;;5075622;28;20016;-89
2021/08/14 11:47:37;;;;;;;9.35;4.30;;;32.20;97.70;;;;;;5075603;28;20031;-89
2021/08/14 11:50:05;;;;;;;8.70;4.43;;;31.80;97.80;;;;;;5093688;28;20025;-88
2021/08/14 11:52:31;;;;;;;11.32;4.30;;;31.10;98.50;;;;;;5075421;28;20244;-89
2021/08/14 11:54:59;;;;;;;12.05;4.57;;;32.40;98.30;;;;;;5075451;28;20044;-89
2021/08/14 11:57:33;;;;;;;9.63;4.43;;;31.90;97.30;;;;;;5093522;28;20031;-89
2021/08/14 12:00:00;;;;;;;14.40;4.35;;;31.20;98.20;;;;;;5075434;28;20035;-89
2021/08/14 12:02:28;;;;;;;7.57;4.30;;;30.90;99.50;;;;;;5075305;28;20035;-88
2021/08/14 12:04:55;;;;;;;7.68;4.00;;;30.60;99.90;;;;;;5075369;28;20017;-89
2021/08/14 12:07:22;;;;;;;9.93;4.45;;;30.40;99.90;;;;;;5074867;28;20547;-88
2021/08/14 12:09:49;;;;;;;6.57;4.28;;;30.20;99.90;;;;;;5075342;28;20052;-89
2021/08/14 12:12:20;;;;;;;6.75;4.30;;;30.10;99.90;;;;;;5075281;28;20020;-88
2021/08/14 12:14:46;;;;;;;9.25;4.32;;;29.80;99.90;;;;;;5075179;28;20024;-88
2021/08/14 12:17:12;;;;;;;8.75;4.15;;;29.70;99.90;;;;;;5093350;28;20416;-89
2021/08/14 12:19:53;;;;;;;7.55;4.45;;;30.70;99.90;;;;;;5093461;28;20099;-89
2021/08/14 12:22:20;;;;;;;10.35;5.00;;;32.10;98.80;;;;;;5075306;28;20387;-88
2021/08/14 12:24:48;;;;;;;7.75;4.65;;;31.40;99.30;;;;;;5093206;28;20020;-88
2021/08/14 12:27:28;;;;;;;14.68;4.80;;;31.00;99.50;;;;;;5074969;28;20031;-88
2021/08/14 12:29:55;;;;;;;11.00;4.97;;;30.40;99.90;;;;;;5093299;28;20047;-87
2021/08/14 12:32:29;;;;;;;14.05;4.50;;;29.80;99.90;;;;;;5075167;28;20024;-89
2021/08/14 12:35:14;;;;;;;;;;;31.20;99.90;;;;;;5075703;28;20024;-90
2021/08/14 12:37:40;;;;;;;6.38;4.22;;;32.60;98.60;;;;;;5075117;28;19940;-90
2021/08/14 12:40:06;;;;;;;11.65;4.50;;;33.30;97.50;;;;;;5075074;28;20036;-90
2021/08/14 12:42:34;;;;;;;8.82;4.38;;;33.60;96.90;;;;;;5076197;28;20020;-90
2021/08/14 12:45:18;;;;;;;13.07;4.40;;;34.00;96.10;;;;;;5093695;28;20020;-90
2021/08/14 12:47:45;;;;;;;10.30;4.40;;;34.50;99.30;;;;;;5097498;28;20048;-89